sensor_id;sensor_type;location;lat;lon;timestamp;pressure;altitude;pressure_sealevel;temperature;humidity
52693;BME280;68218;51.012;-1.648;2023-03-13T00:00:28;98739.22;;;10.54;100.00
52693;BME280;68218;51.012;-1.648;2023-03-13T00:02:53;98730.34;;;10.53;100.00
52693;BME280;68218;51.012;-1.648;2023-03-13T00:05:18;98740.06;;;10.54;100.00
52693;BME280;68218;51.012;-1.648;2023-03-13T00:07:44;98731.97;;;10.54;100.00
52693;BME280;68218;51.012;-1.648;2023-03-13T00:10:09;98733.53;;;10.55;100.00
52693;BME280;68218;51.012;-1.648;2023-03-13T00:12:35;98745.34;;;10.59;100.00
52693;BME280;68218;51.012;-1.648;2023-03-13T00:15:00;98741.03;;;10.58;100.00
52693;BME280;68218;51.012;-1.648;2023-03-13T00:17:25;98734.56;;;10.59;100.00
52693;BME280;68218;51.012;-1.648;2023-03-13T00:19:51;98730.75;;;10.60;100.00
52693;BME280;68218;51.012;-1.648;2023-03-13T00:22:16;98722.97;;;10.59;100.00
52693;BME280;68218;51.012;-1.648;2023-03-13T00:24:41;98705.41;;;10.61;100.00
52693;BME280;68218;51.012;-1.648;2023-03-13T00:27:07;98705.41;;;10.61;100.00
52693;BME280;68218;51.012;-1.648;2023-03-13T00:29:32;98700.41;;;10.55;100.00
52693;BME280;68218;51.012;-1.648;2023-03-13T00:31:59;98711.19;;;10.55;100.00
52693;BME280;68218;51.012;-1.648;2023-03-13T00:34:24;98692.31;;;10.55;100.00
52693;BME280;68218;51.012;-1.648;2023-03-13T00:36:52;98710.41;;;10.54;100.00
52693;BME280;68218;51.012;-1.648;2023-03-13T00:39:17;98713.69;;;10.51;100.00
52693;BME280;68218;51.012;-1.648;2023-03-13T00:41:43;98719.88;;;10.52;100.00
52693;BME280;68218;51.012;-1.648;2023-03-13T00:44:08;98716.59;;;10.55;100.00
52693;BME280;68218;51.012;-1.648;2023-03-13T00:46:34;98718.00;;;10.52;100.00
52693;BME280;68218;51.012;-1.648;2023-03-13T00:49:01;98712.59;;;10.52;100.00
52693;BME280;68218;51.012;-1.648;2023-03-13T00:51:27;98699.91;;;10.53;100.00
52693;BME280;68218;51.012;-1.648;2023-03-13T00:53:53;98718.28;;;10.51;100.00
52693;BME280;68218;51.012;-1.648;2023-03-13T00:56:20;98705.91;;;10.49;100.00
52693;BME280;68218;51.012;-1.648;2023-03-13T00:58:47;98663.56;;;10.50;100.00
52693;BME280;68218;51.012;-1.648;2023-03-13T01:01:28;98690.81;;;10.48;100.00
52693;BME280;68218;51.012;-1.648;2023-03-13T01:03:57;98673.84;;;10.48;100.00
52693;BME280;68218;51.012;-1.648;2023-03-13T01:06:26;98664.19;;;10.47;100.00
52693;BME280;68218;51.012;-1.648;2023-03-13T01:08:52;98679.84;;;10.45;100.00
52693;BME280;68218;51.012;-1.648;2023-03-13T01:11:20;98669.69;;;10.42;100.00
52693;BME280;68218;51.012;-1.648;2023-03-13T01:13:47;98665.88;;;10.43;100.00
52693;BME280;68218;51.012;-1.648;2023-03-13T01:16:16;98655.09;;;10.43;100.00
52693;BME280;68218;51.012;-1.648;2023-03-13T01:18:44;98644.13;;;10.39;100.00
52693;BME280;68218;51.012;-1.648;2023-03-13T01:21:10;98623.63;;;10.38;100.00
52693;BME280;68218;51.012;-1.648;2023-03-13T01:23:36;98625.53;;;10.38;100.00
52693;BME280;68218;51.012;-1.648;2023-03-13T01:26:03;98615.56;;;10.38;100.00
52693;BME280;68218;51.012;-1.648;2023-03-13T01:28:28;98633.03;;;10.41;100.00
52693;BME280;68218;51.012;-1.648;2023-03-13T01:30:54;98631.72;;;10.38;100.00
52693;BME280;68218;51.012;-1.648;2023-03-13T01:33:19;98626.34;;;10.38;100.00
52693;BME280;68218;51.012;-1.648;2023-03-13T01:35:44;98612.56;;;10.40;100.00
52693;BME280;68218;51.012;-1.648;2023-03-13T01:38:10;98612.56;;;10.40;100.00
52693;BME280;68218;51.012;-1.648;2023-03-13T01:40:53;98603.09;;;10.42;100.00
52693;BME280;68218;51.012;-1.648;2023-03-13T01:43:24;98605.78;;;10.42;100.00
52693;BME280;68218;51.012;-1.648;2023-03-13T01:48:25;98607.47;;;10.38;100.00
52693;BME280;68218;51.012;-1.648;2023-03-13T01:50:54;98588.31;;;10.40;100.00
52693;BME280;68218;51.012;-1.648;2023-03-13T01:53:21;98590.41;;;10.43;100.00
52693;BME280;68218;51.012;-1.648;2023-03-13T01:55:48;98575.84;;;10.44;100.00
52693;BME280;68218;51.012;-1.648;2023-03-13T01:58:14;98579.13;;;10.41;100.00
52693;BME280;68218;51.012;-1.648;2023-03-13T02:00:39;98570.47;;;10.44;100.00
52693;BME280;68218;51.012;-1.648;2023-03-13T02:03:10;98568.34;;;10.41;100.00
52693;BME280;68218;51.012;-1.648;2023-03-13T02:05:37;98583.22;;;10.38;100.00
52693;BME280;68218;51.012;-1.648;2023-03-13T02:08:09;98572.31;;;10.43;100.00
52693;BME280;68218;51.012;-1.648;2023-03-13T02:10:42;98565.66;;;10.41;100.00
52693;BME280;68218;51.012;-1.648;2023-03-13T02:13:11;98567.56;;;10.40;100.00
52693;BME280;68218;51.012;-1.648;2023-03-13T02:15:39;98563.25;;;10.39;100.00
52693;BME280;68218;51.012;-1.648;2023-03-13T02:18:05;98572.13;;;10.40;100.00
52693;BME280;68218;51.012;-1.648;2023-03-13T02:20:31;98564.06;;;10.40;100.00
52693;BME280;68218;51.012;-1.648;2023-03-13T02:28:04;98544.50;;;10.34;100.00
52693;BME280;68218;51.012;-1.648;2023-03-13T02:30:32;98535.84;;;10.37;100.00
52693;BME280;68218;51.012;-1.648;2023-03-13T02:32:59;98550.59;;;10.40;100.00
52693;BME280;68218;51.012;-1.648;2023-03-13T02:35:25;98547.69;;;10.36;100.00
52693;BME280;68218;51.012;-1.648;2023-03-13T02:37:58;98549.50;;;10.41;100.00
52693;BME280;68218;51.012;-1.648;2023-03-13T02:40:32;98529.53;;;10.42;100.00
52693;BME280;68218;51.012;-1.648;2023-03-13T02:43:00;98544.00;;;10.46;100.00
52693;BME280;68218;51.012;-1.648;2023-03-13T02:45:26;98523.81;;;10.43;100.00
52693;BME280;68218;51.012;-1.648;2023-03-13T02:47:51;98512.94;;;10.48;100.00
52693;BME280;68218;51.012;-1.648;2023-03-13T02:50:17;98521.00;;;10.48;100.00
52693;BME280;68218;51.012;-1.648;2023-03-13T02:52:44;98509.13;;;10.49;100.00
52693;BME280;68218;51.012;-1.648;2023-03-13T02:55:14;98499.97;;;10.51;100.00
52693;BME280;68218;51.012;-1.648;2023-03-13T02:57:42;98503.75;;;10.49;100.00
52693;BME280;68218;51.012;-1.648;2023-03-13T03:00:08;98498.34;;;10.49;100.00
52693;BME280;68218;51.012;-1.648;2023-03-13T03:02:37;98502.97;;;10.49;100.00
52693;BME280;68218;51.012;-1.648;2023-03-13T03:05:04;98507.53;;;10.48;100.00
52693;BME280;68218;51.012;-1.648;2023-03-13T03:07:29;98500.28;;;10.49;100.00
52693;BME280;68218;51.012;-1.648;2023-03-13T03:09:55;98489.00;;;10.47;100.00
52693;BME280;68218;51.012;-1.648;2023-03-13T03:12:20;98491.38;;;10.48;100.00
52693;BME280;68218;51.012;-1.648;2023-03-13T03:14:46;98477.09;;;10.48;100.00
52693;BME280;68218;51.012;-1.648;2023-03-13T03:17:11;98475.31;;;10.43;100.00
52693;BME280;68218;51.012;-1.648;2023-03-13T03:19:36;98474.81;;;10.41;100.00
52693;BME280;68218;51.012;-1.648;2023-03-13T03:22:02;98453.44;;;10.45;100.00
52693;BME280;68218;51.012;-1.648;2023-03-13T03:24:27;98468.84;;;10.44;100.00
52693;BME280;68218;51.012;-1.648;2023-03-13T03:26:53;98481.22;;;10.45;100.00
52693;BME280;68218;51.012;-1.648;2023-03-13T03:29:18;98464.22;;;10.45;100.00
52693;BME280;68218;51.012;-1.648;2023-03-13T03:31:43;98485.50;;;10.46;100.00
52693;BME280;68218;51.012;-1.648;2023-03-13T03:34:09;98472.81;;;10.47;100.00
52693;BME280;68218;51.012;-1.648;2023-03-13T03:36:34;98456.97;;;10.45;100.00
52693;BME280;68218;51.012;-1.648;2023-03-13T03:38:59;98478.69;;;10.49;100.00
52693;BME280;68218;51.012;-1.648;2023-03-13T03:41:25;98473.44;;;10.44;100.00
52693;BME280;68218;51.012;-1.648;2023-03-13T03:43:50;98470.75;;;10.44;100.00
52693;BME280;68218;51.012;-1.648;2023-03-13T03:46:16;98468.22;;;10.47;100.00
52693;BME280;68218;51.012;-1.648;2023-03-13T03:48:41;98461.72;;;10.48;100.00
52693;BME280;68218;51.012;-1.648;2023-03-13T03:51:07;98445.38;;;10.45;100.00
52693;BME280;68218;51.012;-1.648;2023-03-13T03:53:32;98452.84;;;10.48;100.00
52693;BME280;68218;51.012;-1.648;2023-03-13T03:55:58;98443.50;;;10.45;100.00
52693;BME280;68218;51.012;-1.648;2023-03-13T03:58:24;98440.28;;;10.43;100.00
52693;BME280;68218;51.012;-1.648;2023-03-13T04:00:49;98420.31;;;10.44;100.00
52693;BME280;68218;51.012;-1.648;2023-03-13T04:03:15;98422.72;;;10.46;100.00
52693;BME280;68218;51.012;-1.648;2023-03-13T04:05:41;98421.63;;;10.47;100.00
52693;BME280;68218;51.012;-1.648;2023-03-13T04:08:08;98427.97;;;10.51;100.00
52693;BME280;68218;51.012;-1.648;2023-03-13T04:10:34;98425.41;;;10.46;100.00
52693;BME280;68218;51.012;-1.648;2023-03-13T04:12:59;98426.38;;;10.50;100.00
52693;BME280;68218;51.012;-1.648;2023-03-13T04:15:25;98430.69;;;10.51;100.00
52693;BME280;68218;51.012;-1.648;2023-03-13T04:17:50;98404.22;;;10.53;100.00
52693;BME280;68218;51.012;-1.648;2023-03-13T04:20:15;98411.19;;;10.54;100.00
52693;BME280;68218;51.012;-1.648;2023-03-13T04:22:41;98403.13;;;10.54;100.00
52693;BME280;68218;51.012;-1.648;2023-03-13T04:25:08;98408.03;;;10.52;100.00
52693;BME280;68218;51.012;-1.648;2023-03-13T04:27:33;98401.94;;;10.46;100.00
52693;BME280;68218;51.012;-1.648;2023-03-13T04:29:59;98402.75;;;10.47;99.78
52693;BME280;68218;51.012;-1.648;2023-03-13T04:32:24;98409.25;;;10.46;98.81
52693;BME280;68218;51.012;-1.648;2023-03-13T04:34:50;98410.16;;;10.41;99.45
52693;BME280;68218;51.012;-1.648;2023-03-13T04:37:15;98397.97;;;10.44;98.99
52693;BME280;68218;51.012;-1.648;2023-03-13T04:39:41;98388.22;;;10.34;99.49
52693;BME280;68218;51.012;-1.648;2023-03-13T04:42:07;98382.22;;;10.37;98.74
52693;BME280;68218;51.012;-1.648;2023-03-13T04:44:33;98417.56;;;10.36;98.94
52693;BME280;68218;51.012;-1.648;2023-03-13T04:46:59;98406.00;;;10.35;98.32
52693;BME280;68218;51.012;-1.648;2023-03-13T04:49:24;98417.09;;;10.34;98.38
52693;BME280;68218;51.012;-1.648;2023-03-13T04:51:49;98399.31;;;10.33;97.68
52693;BME280;68218;51.012;-1.648;2023-03-13T04:54:15;98385.84;;;10.33;97.34
52693;BME280;68218;51.012;-1.648;2023-03-13T04:56:40;98406.69;;;10.27;97.67
52693;BME280;68218;51.012;-1.648;2023-03-13T04:59:05;98396.41;;;10.29;96.66
52693;BME280;68218;51.012;-1.648;2023-03-13T05:01:31;98391.75;;;10.21;96.55
52693;BME280;68218;51.012;-1.648;2023-03-13T05:03:56;98395.63;;;10.28;95.09
52693;BME280;68218;51.012;-1.648;2023-03-13T05:06:22;98400.44;;;10.18;96.68
52693;BME280;68218;51.012;-1.648;2023-03-13T05:08:47;98403.47;;;10.16;96.41
52693;BME280;68218;51.012;-1.648;2023-03-13T05:11:12;98396.03;;;10.22;95.24
52693;BME280;68218;51.012;-1.648;2023-03-13T05:13:38;98405.50;;;10.19;95.61
52693;BME280;68218;51.012;-1.648;2023-03-13T05:16:03;98398.06;;;10.16;96.22
52693;BME280;68218;51.012;-1.648;2023-03-13T05:18:29;98394.91;;;10.23;95.31
52693;BME280;68218;51.012;-1.648;2023-03-13T05:20:55;98389.66;;;10.18;95.96
52693;BME280;68218;51.012;-1.648;2023-03-13T05:23:20;98393.16;;;10.18;95.58
52693;BME280;68218;51.012;-1.648;2023-03-13T05:25:45;98384.28;;;10.18;96.02
52693;BME280;68218;51.012;-1.648;2023-03-13T05:28:11;98396.94;;;10.17;96.31
52693;BME280;68218;51.012;-1.648;2023-03-13T05:30:36;98381.91;;;10.16;96.19
52693;BME280;68218;51.012;-1.648;2023-03-13T05:33:02;98390.47;;;10.18;96.24
52693;BME280;68218;51.012;-1.648;2023-03-13T05:35:27;98394.13;;;10.22;95.11
52693;BME280;68218;51.012;-1.648;2023-03-13T05:37:53;98377.38;;;10.25;95.02
52693;BME280;68218;51.012;-1.648;2023-03-13T05:40:18;98381.78;;;10.21;95.27
52693;BME280;68218;51.012;-1.648;2023-03-13T05:42:44;98386.47;;;10.16;96.13
52693;BME280;68218;51.012;-1.648;2023-03-13T05:45:09;98399.03;;;10.20;95.24
52693;BME280;68218;51.012;-1.648;2023-03-13T05:47:35;98328.09;;;10.25;94.42
52693;BME280;68218;51.012;-1.648;2023-03-13T05:50:01;98360.59;;;10.28;94.05
52693;BME280;68218;51.012;-1.648;2023-03-13T05:52:26;98370.06;;;10.26;94.28
52693;BME280;68218;51.012;-1.648;2023-03-13T05:54:52;98369.84;;;10.36;93.17
52693;BME280;68218;51.012;-1.648;2023-03-13T05:57:17;98351.09;;;10.31;94.09
52693;BME280;68218;51.012;-1.648;2023-03-13T05:59:42;98337.91;;;10.29;93.52
52693;BME280;68218;51.012;-1.648;2023-03-13T06:02:08;98331.25;;;10.27;93.35
52693;BME280;68218;51.012;-1.648;2023-03-13T06:04:34;98362.28;;;10.24;93.05
52693;BME280;68218;51.012;-1.648;2023-03-13T06:06:59;98367.38;;;10.26;93.12
52693;BME280;68218;51.012;-1.648;2023-03-13T06:09:25;98361.59;;;10.33;92.52
52693;BME280;68218;51.012;-1.648;2023-03-13T06:11:50;98371.66;;;10.27;92.46
52693;BME280;68218;51.012;-1.648;2023-03-13T06:14:15;98345.53;;;10.27;92.41
52693;BME280;68218;51.012;-1.648;2023-03-13T06:16:41;98338.03;;;10.24;92.25
52693;BME280;68218;51.012;-1.648;2023-03-13T06:19:06;98327.41;;;10.19;92.69
52693;BME280;68218;51.012;-1.648;2023-03-13T06:21:31;98341.97;;;10.18;92.48
52693;BME280;68218;51.012;-1.648;2023-03-13T06:23:57;98329.59;;;10.17;92.20
52693;BME280;68218;51.012;-1.648;2023-03-13T06:26:22;98343.06;;;10.17;92.17
52693;BME280;68218;51.012;-1.648;2023-03-13T06:28:50;98336.00;;;10.21;91.69
52693;BME280;68218;51.012;-1.648;2023-03-13T06:31:15;98338.16;;;10.19;91.60
52693;BME280;68218;51.012;-1.648;2023-03-13T06:33:40;98336.00;;;10.21;91.66
52693;BME280;68218;51.012;-1.648;2023-03-13T06:36:06;98331.50;;;10.17;92.27
52693;BME280;68218;51.012;-1.648;2023-03-13T06:38:32;98334.88;;;10.22;90.90
52693;BME280;68218;51.012;-1.648;2023-03-13T06:40:57;98343.75;;;10.23;90.78
52693;BME280;68218;51.012;-1.648;2023-03-13T06:43:24;98332.00;;;10.19;91.76
52693;BME280;68218;51.012;-1.648;2023-03-13T06:45:50;98341.97;;;10.18;92.11
52693;BME280;68218;51.012;-1.648;2023-03-13T06:48:15;98324.81;;;10.14;91.63
52693;BME280;68218;51.012;-1.648;2023-03-13T06:50:41;98333.28;;;10.21;90.28
52693;BME280;68218;51.012;-1.648;2023-03-13T06:53:13;98322.44;;;10.12;91.47
52693;BME280;68218;51.012;-1.648;2023-03-13T06:55:39;98338.94;;;10.11;91.76
52693;BME280;68218;51.012;-1.648;2023-03-13T06:58:05;98327.03;;;10.12;91.49
52693;BME280;68218;51.012;-1.648;2023-03-13T07:00:30;98317.69;;;10.09;91.33
52693;BME280;68218;51.012;-1.648;2023-03-13T07:02:55;98344.44;;;10.06;91.69
52693;BME280;68218;51.012;-1.648;2023-03-13T07:05:21;98322.91;;;10.06;91.76
52693;BME280;68218;51.012;-1.648;2023-03-13T07:07:46;98328.06;;;10.02;91.89
52693;BME280;68218;51.012;-1.648;2023-03-13T07:10:11;98324.34;;;10.12;90.65
52693;BME280;68218;51.012;-1.648;2023-03-13T07:12:37;98335.13;;;10.12;91.07
52693;BME280;68218;51.012;-1.648;2023-03-13T07:15:03;98320.44;;;10.18;89.86
52693;BME280;68218;51.012;-1.648;2023-03-13T07:17:29;98316.63;;;10.19;90.57
52693;BME280;68218;51.012;-1.648;2023-03-13T07:19:54;98333.22;;;10.12;90.57
52693;BME280;68218;51.012;-1.648;2023-03-13T07:22:19;98318.03;;;10.17;89.78
52693;BME280;68218;51.012;-1.648;2023-03-13T07:24:45;98320.63;;;10.22;89.65
52693;BME280;68218;51.012;-1.648;2023-03-13T07:27:10;98318.72;;;10.22;88.97
52693;BME280;68218;51.012;-1.648;2023-03-13T07:29:36;98327.09;;;10.21;89.18
52693;BME280;68218;51.012;-1.648;2023-03-13T07:32:01;98297.19;;;10.31;87.98
52693;BME280;68218;51.012;-1.648;2023-03-13T07:34:26;98322.34;;;10.40;87.70
52693;BME280;68218;51.012;-1.648;2023-03-13T07:36:52;98310.75;;;10.40;88.06
52693;BME280;68218;51.012;-1.648;2023-03-13T07:39:17;98298.56;;;10.42;86.73
52693;BME280;68218;51.012;-1.648;2023-03-13T07:41:42;98306.13;;;10.32;88.55
52693;BME280;68218;51.012;-1.648;2023-03-13T07:44:08;98315.00;;;10.32;88.43
52693;BME280;68218;51.012;-1.648;2023-03-13T07:46:33;98315.28;;;10.30;87.79
52693;BME280;68218;51.012;-1.648;2023-03-13T07:48:59;98302.59;;;10.31;87.10
52693;BME280;68218;51.012;-1.648;2023-03-13T07:51:25;98308.81;;;10.32;87.39
52693;BME280;68218;51.012;-1.648;2023-03-13T07:53:51;98309.59;;;10.32;86.99
52693;BME280;68218;51.012;-1.648;2023-03-13T07:56:19;98305.59;;;10.29;86.53
52693;BME280;68218;51.012;-1.648;2023-03-13T07:58:46;98298.31;;;10.30;86.62
52693;BME280;68218;51.012;-1.648;2023-03-13T08:01:17;98313.50;;;10.26;86.91
52693;BME280;68218;51.012;-1.648;2023-03-13T08:03:43;98312.09;;;10.28;86.99
52693;BME280;68218;51.012;-1.648;2023-03-13T08:06:13;98285.28;;;10.23;87.33
52693;BME280;68218;51.012;-1.648;2023-03-13T08:08:40;98299.25;;;10.25;86.66
52693;BME280;68218;51.012;-1.648;2023-03-13T08:11:07;98298.16;;;10.26;86.22
52693;BME280;68218;51.012;-1.648;2023-03-13T08:13:34;98296.72;;;10.29;86.92
52693;BME280;68218;51.012;-1.648;2023-03-13T08:16:14;98290.44;;;10.34;86.37
52693;BME280;68218;51.012;-1.648;2023-03-13T08:18:45;98285.06;;;10.34;86.55
52693;BME280;68218;51.012;-1.648;2023-03-13T08:21:13;98310.41;;;10.33;87.77
52693;BME280;68218;51.012;-1.648;2023-03-13T08:23:39;98284.75;;;10.35;86.12
52693;BME280;68218;51.012;-1.648;2023-03-13T08:26:06;98258.91;;;10.34;86.30
52693;BME280;68218;51.012;-1.648;2023-03-13T08:28:33;98277.44;;;10.36;86.14
52693;BME280;68218;51.012;-1.648;2023-03-13T08:30:58;98250.50;;;10.36;86.18
52693;BME280;68218;51.012;-1.648;2023-03-13T08:33:30;98269.19;;;10.32;86.95
52693;BME280;68218;51.012;-1.648;2023-03-13T08:35:55;98244.16;;;10.32;87.14
52693;BME280;68218;51.012;-1.648;2023-03-13T08:38:20;98236.97;;;10.27;87.67
52693;BME280;68218;51.012;-1.648;2023-03-13T08:40:46;98249.97;;;10.25;88.62
52693;BME280;68218;51.012;-1.648;2023-03-13T08:43:11;98253.44;;;10.25;87.98
52693;BME280;68218;51.012;-1.648;2023-03-13T08:45:37;98255.66;;;10.23;88.47
52693;BME280;68218;51.012;-1.648;2023-03-13T08:48:02;98251.66;;;10.21;89.41
52693;BME280;68218;51.012;-1.648;2023-03-13T08:50:27;98258.31;;;10.15;90.09
52693;BME280;68218;51.012;-1.648;2023-03-13T08:52:53;98251.97;;;10.19;88.86
52693;BME280;68218;51.012;-1.648;2023-03-13T08:55:18;98263.25;;;10.21;89.18
52693;BME280;68218;51.012;-1.648;2023-03-13T08:57:44;98252.16;;;10.23;88.62
52693;BME280;68218;51.012;-1.648;2023-03-13T09:00:09;98263.13;;;10.26;88.80
52693;BME280;68218;51.012;-1.648;2023-03-13T09:02:35;98258.22;;;10.28;87.68
52693;BME280;68218;51.012;-1.648;2023-03-13T09:05:00;98251.47;;;10.40;86.34
52693;BME280;68218;51.012;-1.648;2023-03-13T09:07:26;98259.28;;;10.50;85.89
52693;BME280;68218;51.012;-1.648;2023-03-13T09:09:51;98241.88;;;10.56;86.21
52693;BME280;68218;51.012;-1.648;2023-03-13T09:12:16;98266.00;;;10.61;87.03
52693;BME280;68218;51.012;-1.648;2023-03-13T09:14:42;98233.03;;;10.64;84.62
52693;BME280;68218;51.012;-1.648;2023-03-13T09:17:07;98249.69;;;10.66;83.86
52693;BME280;68218;51.012;-1.648;2023-03-13T09:19:32;98268.56;;;10.75;84.04
52693;BME280;68218;51.012;-1.648;2023-03-13T09:21:58;98261.75;;;10.78;82.92
52693;BME280;68218;51.012;-1.648;2023-03-13T09:24:24;98264.59;;;10.73;83.75
52693;BME280;68218;51.012;-1.648;2023-03-13T09:26:49;98254.94;;;10.72;85.05
52693;BME280;68218;51.012;-1.648;2023-03-13T09:29:14;98257.16;;;10.70;84.58
52693;BME280;68218;51.012;-1.648;2023-03-13T09:31:40;98265.22;;;10.70;84.13
52693;BME280;68218;51.012;-1.648;2023-03-13T09:34:05;98298.81;;;10.63;85.09
52693;BME280;68218;51.012;-1.648;2023-03-13T09:36:31;98250.44;;;10.58;86.00
52693;BME280;68218;51.012;-1.648;2023-03-13T09:38:57;98275.31;;;10.55;84.94
52693;BME280;68218;51.012;-1.648;2023-03-13T09:44:21;98274.56;;;10.63;84.46
52693;BME280;68218;51.012;-1.648;2023-03-13T09:49:46;98272.94;;;10.62;85.13
52693;BME280;68218;51.012;-1.648;2023-03-13T09:52:16;98263.78;;;10.63;84.84
52693;BME280;68218;51.012;-1.648;2023-03-13T09:54:56;98273.78;;;10.63;84.19
52693;BME280;68218;51.012;-1.648;2023-03-13T09:57:35;98281.38;;;10.61;84.00
52693;BME280;68218;51.012;-1.648;2023-03-13T10:00:18;98293.44;;;10.63;83.38
52693;BME280;68218;51.012;-1.648;2023-03-13T10:02:55;98292.59;;;10.54;85.44
52693;BME280;68218;51.012;-1.648;2023-03-13T10:05:27;98295.91;;;10.51;85.50
52693;BME280;68218;51.012;-1.648;2023-03-13T10:08:00;98295.91;;;10.51;85.59
52693;BME280;68218;51.012;-1.648;2023-03-13T10:18:20;98292.44;;;10.51;84.92
52693;BME280;68218;51.012;-1.648;2023-03-13T10:20:48;98296.84;;;10.46;86.68
52693;BME280;68218;51.012;-1.648;2023-03-13T10:23:20;98298.25;;;10.44;87.30
52693;BME280;68218;51.012;-1.648;2023-03-13T10:25:46;98301.56;;;10.41;88.03
52693;BME280;68218;51.012;-1.648;2023-03-13T10:28:16;98305.34;;;10.40;88.52
52693;BME280;68218;51.012;-1.648;2023-03-13T10:31:15;98291.75;;;10.45;88.57
52693;BME280;68218;51.012;-1.648;2023-03-13T10:33:42;98302.25;;;10.55;85.15
52693;BME280;68218;51.012;-1.648;2023-03-13T10:36:08;98307.31;;;10.48;86.86
52693;BME280;68218;51.012;-1.648;2023-03-13T10:38:51;98305.91;;;10.51;87.26
52693;BME280;68218;51.012;-1.648;2023-03-13T10:41:26;98300.69;;;10.54;86.16
52693;BME280;68218;51.012;-1.648;2023-03-13T10:43:59;98297.41;;;10.66;84.78
52693;BME280;68218;51.012;-1.648;2023-03-13T10:46:28;98286.13;;;10.64;86.46
52693;BME280;68218;51.012;-1.648;2023-03-13T10:48:55;98300.41;;;10.64;85.85
52693;BME280;68218;51.012;-1.648;2023-03-13T10:51:23;98297.41;;;10.66;85.22
52693;BME280;68218;51.012;-1.648;2023-03-13T10:53:49;98279.50;;;10.70;85.13
52693;BME280;68218;51.012;-1.648;2023-03-13T10:56:23;98298.41;;;10.79;83.83
52693;BME280;68218;51.012;-1.648;2023-03-13T10:58:51;98283.81;;;10.80;85.33
52693;BME280;68218;51.012;-1.648;2023-03-13T11:01:28;98301.72;;;10.76;84.81
52693;BME280;68218;51.012;-1.648;2023-03-13T11:03:58;98282.41;;;10.82;82.75
52693;BME280;68218;51.012;-1.648;2023-03-13T11:06:30;98283.91;;;11.06;82.17
52693;BME280;68218;51.012;-1.648;2023-03-13T11:09:16;98287.75;;;11.22;81.57
52693;BME280;68218;51.012;-1.648;2023-03-13T11:12:03;98278.38;;;11.20;81.55
52693;BME280;68218;51.012;-1.648;2023-03-13T11:14:29;98282.00;;;11.15;81.26
52693;BME280;68218;51.012;-1.648;2023-03-13T11:27:48;98268.34;;;11.20;81.58
52693;BME280;68218;51.012;-1.648;2023-03-13T11:33:04;98270.91;;;11.25;82.43
52693;BME280;68218;51.012;-1.648;2023-03-13T11:38:02;98283.91;;;11.06;83.02
52693;BME280;68218;51.012;-1.648;2023-03-13T11:40:57;98270.84;;;10.91;83.10
52693;BME280;68218;51.012;-1.648;2023-03-13T11:51:11;98245.78;;;10.81;86.74
52693;BME280;68218;51.012;-1.648;2023-03-13T12:02:13;98226.31;;;11.46;83.83
52693;BME280;68218;51.012;-1.648;2023-03-13T12:04:43;98216.13;;;11.60;82.04
52693;BME280;68218;51.012;-1.648;2023-03-13T12:12:21;98210.31;;;12.23;80.95
52693;BME280;68218;51.012;-1.648;2023-03-13T12:14:57;98207.97;;;12.12;79.08
52693;BME280;68218;51.012;-1.648;2023-03-13T12:17:40;98212.63;;;11.77;80.04
52693;BME280;68218;51.012;-1.648;2023-03-13T12:23:02;98213.44;;;11.51;82.07
52693;BME280;68218;51.012;-1.648;2023-03-13T12:31:24;98213.94;;;11.18;83.77
52693;BME280;68218;51.012;-1.648;2023-03-13T12:36:43;98216.91;;;10.99;85.38
52693;BME280;68218;51.012;-1.648;2023-03-13T12:40:06;98225.59;;;10.79;86.84
52693;BME280;68218;51.012;-1.648;2023-03-13T12:45:05;98218.75;;;10.73;89.28
52693;BME280;68218;51.012;-1.648;2023-03-13T12:58:56;98188.69;;;11.14;85.12
52693;BME280;68218;51.012;-1.648;2023-03-13T13:03:55;98198.69;;;11.31;83.40
52693;BME280;68218;51.012;-1.648;2023-03-13T13:06:23;98188.06;;;11.26;82.24
52693;BME280;68218;51.012;-1.648;2023-03-13T13:13:58;98182.66;;;11.52;81.61
52693;BME280;68218;51.012;-1.648;2023-03-13T13:16:24;98184.53;;;11.69;81.07
52693;BME280;68218;51.012;-1.648;2023-03-13T13:18:51;98164.84;;;11.60;80.81
52693;BME280;68218;51.012;-1.648;2023-03-13T13:23:44;98148.66;;;11.69;79.41
52693;BME280;68218;51.012;-1.648;2023-03-13T13:28:56;98144.31;;;11.76;78.97
52693;BME280;68218;51.012;-1.648;2023-03-13T13:39:48;98118.50;;;11.49;78.82
52693;BME280;68218;51.012;-1.648;2023-03-13T13:42:45;98130.06;;;11.50;80.22
52693;BME280;68218;51.012;-1.648;2023-03-13T13:47:41;98090.63;;;11.75;80.61
52693;BME280;68218;51.012;-1.648;2023-03-13T13:50:27;98105.63;;;11.64;80.23
52693;BME280;68218;51.012;-1.648;2023-03-13T13:55:57;98076.53;;;12.08;78.54
52693;BME280;68218;51.012;-1.648;2023-03-13T13:58:27;98092.28;;;12.06;79.33
52693;BME280;68218;51.012;-1.648;2023-03-13T14:00:59;98090.59;;;11.84;80.23
52693;BME280;68218;51.012;-1.648;2023-03-13T14:03:30;98066.75;;;11.86;80.07
52693;BME280;68218;51.012;-1.648;2023-03-13T14:06:02;98065.28;;;12.06;78.67
52693;BME280;68218;51.012;-1.648;2023-03-13T14:08:37;98061.69;;;11.93;78.53
52693;BME280;68218;51.012;-1.648;2023-03-13T14:11:32;98055.41;;;12.10;79.63
52693;BME280;68218;51.012;-1.648;2023-03-13T14:16:37;98049.19;;;12.09;78.19
52693;BME280;68218;51.012;-1.648;2023-03-13T14:19:03;98054.84;;;11.95;77.91
52693;BME280;68218;51.012;-1.648;2023-03-13T14:21:29;98043.44;;;11.81;78.10
52693;BME280;68218;51.012;-1.648;2023-03-13T14:23:54;98050.28;;;11.78;78.65
52693;BME280;68218;51.012;-1.648;2023-03-13T14:28:48;98021.19;;;11.84;78.41
52693;BME280;68218;51.012;-1.648;2023-03-13T14:31:39;98028.25;;;11.68;78.78
52693;BME280;68218;51.012;-1.648;2023-03-13T14:34:07;98022.81;;;11.76;78.90
52693;BME280;68218;51.012;-1.648;2023-03-13T14:36:55;98019.41;;;11.88;78.21
52693;BME280;68218;51.012;-1.648;2023-03-13T14:42:02;98007.44;;;11.68;79.06
52693;BME280;68218;51.012;-1.648;2023-03-13T14:44:30;98005.72;;;11.64;79.57
52693;BME280;68218;51.012;-1.648;2023-03-13T14:46:58;98009.19;;;11.64;79.53